Thunder radar more information blitzortung!


Radar de pluja more information rain snow radar


Visita la nostra xarxa de llocs de meteo:

Template documentation
and downloads

And another site



No particular awareness of the weather is required.    There are no Weather-warnings

Pagina Historial Weather Underground text

Diari Resum Novembre 11, 2017 Unitats:  Mètric    Imperial   Tant
« Previous Dia
SegĂźent Dia »
Diari Setmana Mensual Anual Personalitzada
  Maxima: Minima: Media:
Temperatura: 16.7 °C 6.2 °C 10.3 °C
Punt de rosada: 8.8 °C -0.1 °C 3.7 °C
Humitat: 68 % 57 % 63 %
Wind Speed: 12.6 km/h 0.0 km/h 3.3 km/h
RĂ fegues de vent: 12.6 km/h - -
Vent:- - SSW
Pression baro: 1026.0 hPa 1020.9 hPa -
Precipitacions: 0.0 mm    
Historical Graphs
 
 
Dades de taula per Novembre 11, 2017
Temps Temperatura Punt de rosada Pression baro Vent Wind Speed RĂ fegues de vent Humitat Rainfall Rate (Hourly)
00:01 7.2 °C -0.1 °C 1026.0 hPa Calm     60 % 0.0 mm
00:06 7.2 °C -0.1 °C 1026.0 hPa West 1.9 km/h 1.9 km/h 60 % 0.0 mm
00:11 7.2 °C -0.1 °C 1026.0 hPa Calm     60 % 0.0 mm
00:16 7.2 °C -0.1 °C 1026.0 hPa West 2.3 km/h   60 % 0.0 mm
00:21 7.2 °C -0.1 °C 1024.9 hPa West 3.7 km/h 3.7 km/h 60 % 0.0 mm
00:26 7.3 °C 0.1 °C 1024.9 hPa West 1.9 km/h 1.9 km/h 60 % 0.0 mm
00:31 7.2 °C -0.1 °C 1024.9 hPa West 1.9 km/h 1.9 km/h 60 % 0.0 mm
00:36 7.3 °C 0.1 °C 1026.0 hPa West 1.9 km/h   60 % 0.0 mm
00:41 7.3 °C 0.1 °C 1026.0 hPa West 2.6 km/h   60 % 0.0 mm
00:46 7.4 °C 0.4 °C 1026.0 hPa NE 3.7 km/h 3.7 km/h 61 % 0.0 mm
00:51 7.3 °C 0.3 °C 1024.9 hPa NNE 2.3 km/h   61 % 0.0 mm
00:56 7.2 °C 0.2 °C 1024.9 hPa WNW 1.9 km/h 1.9 km/h 61 % 0.0 mm
01:01 7.1 °C 0.1 °C 1024.9 hPa NNE 3.7 km/h 3.7 km/h 61 % 0.0 mm
01:06 7.0 °C 0.0 °C 1024.9 hPa NW 3.7 km/h   61 % 0.0 mm
01:11 7.0 °C 0.0 °C 1024.9 hPa NNW 3.7 km/h 3.7 km/h 61 % 0.0 mm
01:12 7.0 °C 0.0 °C 1024.9 hPa WNW 3.7 km/h 3.7 km/h 61 % 0.0 mm
01:17 6.9 °C -0.1 °C 1024.9 hPa WSW 3.7 km/h 3.7 km/h 61 % 0.0 mm
01:22 6.9 °C 0.1 °C 1026.0 hPa WNW 3.7 km/h 3.7 km/h 62 % 0.0 mm
01:27 6.8 °C 0.0 °C 1026.0 hPa WSW 3.7 km/h 3.7 km/h 62 % 0.0 mm
01:32 6.8 °C 0.0 °C 1026.0 hPa WNW 1.9 km/h   62 % 0.0 mm
01:37 6.7 °C -0.1 °C 1024.9 hPa WNW 3.7 km/h 3.7 km/h 62 % 0.0 mm
01:42 6.8 °C 0.0 °C 1024.9 hPa WNW 3.7 km/h 3.7 km/h 62 % 0.0 mm
01:47 6.8 °C 0.0 °C 1024.9 hPa West 3.7 km/h 3.7 km/h 62 % 0.0 mm
01:52 6.8 °C 0.0 °C 1024.9 hPa NNE 5.6 km/h 5.6 km/h 62 % 0.0 mm
01:57 6.9 °C 0.3 °C 1024.9 hPa WNW 3.5 km/h 3.5 km/h 63 % 0.0 mm
02:02 6.9 °C 0.1 °C 1024.9 hPa WNW 3.7 km/h 3.7 km/h 62 % 0.0 mm
02:07 6.9 °C 0.1 °C 1023.9 hPa NNW 3.7 km/h 3.7 km/h 62 % 0.0 mm
02:12 7.0 °C 0.2 °C 1023.9 hPa NW 3.7 km/h 3.7 km/h 62 % 0.0 mm
02:17 7.0 °C 0.4 °C 1023.9 hPa North 3.7 km/h   63 % 0.0 mm
02:22 7.0 °C 0.4 °C 1023.9 hPa WNW 3.7 km/h 3.7 km/h 63 % 0.0 mm
02:27 7.0 °C 0.2 °C 1023.9 hPa WNW 3.7 km/h 3.7 km/h 62 % 0.0 mm
02:32 6.9 °C 0.3 °C 1023.9 hPa NW 2.3 km/h 3.5 km/h 63 % 0.0 mm
02:37 6.9 °C 0.1 °C 1023.9 hPa West 3.5 km/h 3.5 km/h 62 % 0.0 mm
02:42 6.8 °C 0.0 °C 1023.9 hPa WSW 3.7 km/h 3.7 km/h 62 % 0.0 mm
02:47 6.8 °C 0.2 °C 1023.9 hPa West 1.9 km/h 1.9 km/h 63 % 0.0 mm
02:48 6.9 °C 0.3 °C 1023.9 hPa West 1.9 km/h 1.9 km/h 63 % 0.0 mm
02:53 6.9 °C 0.3 °C 1023.9 hPa WNW 2.6 km/h 2.6 km/h 63 % 0.0 mm
02:58 7.0 °C 0.4 °C 1023.9 hPa WNW 2.3 km/h 2.3 km/h 63 % 0.0 mm
03:03 6.9 °C 0.3 °C 1023.9 hPa NW 1.4 km/h   63 % 0.0 mm
03:08 6.9 °C 0.3 °C 1023.9 hPa WNW 2.3 km/h   63 % 0.0 mm
03:13 6.9 °C 0.3 °C 1023.9 hPa WNW 3.7 km/h 3.7 km/h 63 % 0.0 mm
03:18 7.0 °C 0.4 °C 1023.9 hPa SW 3.7 km/h 3.7 km/h 63 % 0.0 mm
03:23 7.0 °C 0.4 °C 1023.9 hPa NW 3.7 km/h 3.7 km/h 63 % 0.0 mm
03:28 6.9 °C 0.6 °C 1023.9 hPa South 3.7 km/h 3.7 km/h 64 % 0.0 mm
03:33 6.8 °C 0.2 °C 1023.9 hPa WSW 4.7 km/h 4.7 km/h 63 % 0.0 mm
03:34 6.8 °C 0.2 °C 1023.9 hPa WSW 4.2 km/h 4.2 km/h 63 % 0.0 mm
03:39 6.8 °C 0.2 °C 1023.9 hPa West 3.2 km/h   63 % 0.0 mm
03:44 6.8 °C 0.2 °C 1023.9 hPa WSW 5.6 km/h 5.6 km/h 63 % 0.0 mm
03:49 6.9 °C 0.3 °C 1023.9 hPa West 3.7 km/h 3.7 km/h 63 % 0.0 mm
03:54 7.0 °C 0.7 °C 1023.9 hPa NNW 3.7 km/h 3.7 km/h 64 % 0.0 mm
03:59 7.0 °C 0.7 °C 1023.9 hPa ENE 3.7 km/h 3.7 km/h 64 % 0.0 mm
04:04 6.7 °C 0.4 °C 1024.9 hPa NNE 5.6 km/h 5.6 km/h 64 % 0.0 mm
04:09 6.6 °C 0.3 °C 1024.9 hPa ENE 3.9 km/h 3.9 km/h 64 % 0.0 mm
04:16 6.4 °C 0.1 °C 1024.9 hPa NE 5.6 km/h 5.6 km/h 64 % 0.0 mm
04:21 6.3 °C 0.2 °C 1023.9 hPa NNE 5.6 km/h 5.6 km/h 65 % 0.0 mm
04:22 6.2 °C 0.1 °C 1023.9 hPa ENE 5.6 km/h 5.6 km/h 65 % 0.0 mm
04:23 6.2 °C 0.1 °C 1023.9 hPa NNE 5.6 km/h 5.6 km/h 65 % 0.0 mm
04:24 6.2 °C 0.1 °C 1023.9 hPa NNE 5.6 km/h 5.6 km/h 65 % 0.0 mm
04:28 6.2 °C 0.1 °C 1023.9 hPa North 7.4 km/h 7.4 km/h 65 % 0.0 mm
04:29 6.2 °C 0.1 °C 1023.9 hPa NE 5.6 km/h 5.6 km/h 65 % 0.0 mm
04:33 6.2 °C 0.1 °C 1023.9 hPa North 5.6 km/h 5.6 km/h 65 % 0.0 mm
04:38 6.2 °C 0.1 °C 1023.9 hPa NW 3.2 km/h 3.2 km/h 65 % 0.0 mm
04:43 6.2 °C 0.1 °C 1023.9 hPa West 5.6 km/h 5.6 km/h 65 % 0.0 mm
04:48 6.2 °C 0.1 °C 1023.9 hPa NNW 4.7 km/h 4.7 km/h 65 % 0.0 mm
04:53 6.3 °C 0.2 °C 1023.9 hPa NNW 3.9 km/h 4.2 km/h 65 % 0.0 mm
04:58 6.4 °C 0.3 °C 1023.9 hPa North 5.6 km/h 5.6 km/h 65 % 0.0 mm
05:03 6.4 °C 0.3 °C 1023.9 hPa WNW 3.7 km/h 3.7 km/h 65 % 0.0 mm
05:08 6.4 °C 0.3 °C 1023.9 hPa NE 5.6 km/h 5.6 km/h 65 % 0.0 mm
05:13 6.5 °C 0.6 °C 1023.9 hPa ENE 3.7 km/h 3.7 km/h 66 % 0.0 mm
05:18 6.5 °C 0.4 °C 1023.9 hPa NNE 5.6 km/h 5.6 km/h 65 % 0.0 mm
05:23 6.6 °C 0.7 °C 1022.9 hPa NNE 3.9 km/h 3.9 km/h 66 % 0.0 mm
05:28 6.7 °C 0.8 °C 1022.9 hPa North 2.6 km/h 2.6 km/h 66 % 0.0 mm
05:33 6.7 °C 0.8 °C 1022.9 hPa North 5.6 km/h 5.6 km/h 66 % 0.0 mm
05:38 6.7 °C 0.6 °C 1023.9 hPa ENE 3.7 km/h 3.7 km/h 65 % 0.0 mm
05:43 6.8 °C 0.9 °C 1023.9 hPa East 3.7 km/h 3.7 km/h 66 % 0.0 mm
05:48 6.8 °C 0.9 °C 1023.9 hPa SSE 3.7 km/h 3.7 km/h 66 % 0.0 mm
05:53 6.8 °C 0.9 °C 1023.9 hPa NE 3.7 km/h 3.7 km/h 66 % 0.0 mm
05:58 6.9 °C 1.0 °C 1023.9 hPa WNW 3.7 km/h 3.7 km/h 66 % 0.0 mm
06:03 6.9 °C 1.0 °C 1023.9 hPa NNW 3.7 km/h 3.7 km/h 66 % 0.0 mm
06:08 6.8 °C 0.9 °C 1023.9 hPa North 3.7 km/h 3.7 km/h 66 % 0.0 mm
06:13 6.9 °C 1.0 °C 1023.9 hPa WNW 3.7 km/h 3.7 km/h 66 % 0.0 mm
06:18 6.8 °C 0.9 °C 1023.9 hPa North 3.7 km/h 3.7 km/h 66 % 0.0 mm
06:23 6.9 °C 1.2 °C 1023.9 hPa East 1.9 km/h 1.9 km/h 67 % 0.0 mm
06:28 6.9 °C 1.0 °C 1023.9 hPa NNW 3.7 km/h 3.7 km/h 66 % 0.0 mm
06:33 7.0 °C 1.3 °C 1023.9 hPa WNW 1.9 km/h   67 % 0.0 mm
06:38 6.9 °C 1.0 °C 1023.9 hPa West 3.7 km/h 3.7 km/h 66 % 0.0 mm
06:39 6.9 °C 1.0 °C 1023.9 hPa West 1.9 km/h   66 % 0.0 mm
06:44 6.8 °C 0.9 °C 1023.9 hPa West 2.3 km/h 2.3 km/h 66 % 0.0 mm
06:49 6.8 °C 1.1 °C 1023.9 hPa Calm     67 % 0.0 mm
06:54 6.8 °C 1.1 °C 1023.9 hPa Calm     67 % 0.0 mm
06:59 6.8 °C 1.1 °C 1023.9 hPa NNW 1.9 km/h   67 % 0.0 mm
07:04 6.8 °C 1.1 °C 1023.9 hPa Calm     67 % 0.0 mm
07:09 6.7 °C 1.0 °C 1023.9 hPa NW 1.9 km/h 1.9 km/h 67 % 0.0 mm
07:14 6.7 °C 1.0 °C 1023.9 hPa NW 3.7 km/h   67 % 0.0 mm
07:19 6.7 °C 1.0 °C 1023.9 hPa West 5.6 km/h 5.6 km/h 67 % 0.0 mm
07:24 6.7 °C 1.0 °C 1023.9 hPa WNW 1.9 km/h   67 % 0.0 mm
07:29 6.6 °C 0.9 °C 1023.9 hPa West 1.9 km/h 2.3 km/h 67 % 0.0 mm
07:34 6.5 °C 0.8 °C 1023.9 hPa SW 2.3 km/h 2.3 km/h 67 % 0.0 mm
07:39 6.5 °C 0.8 °C 1023.9 hPa ESE 3.7 km/h 3.7 km/h 67 % 0.0 mm
07:44 6.6 °C 0.9 °C 1023.9 hPa West 3.7 km/h 3.7 km/h 67 % 0.0 mm
07:49 6.8 °C 1.3 °C 1023.9 hPa NNW 3.7 km/h 3.7 km/h 68 % 0.0 mm
07:54 6.9 °C 1.2 °C 1023.9 hPa SW 3.7 km/h 3.7 km/h 67 % 0.0 mm
07:59 7.1 °C 1.6 °C 1023.9 hPa NW 1.9 km/h   68 % 0.0 mm
08:04 7.3 °C 1.6 °C 1023.9 hPa SW 3.7 km/h 3.7 km/h 67 % 0.0 mm
08:09 7.6 °C 2.1 °C 1023.9 hPa SW 3.7 km/h   68 % 0.0 mm
08:14 8.0 °C 2.2 °C 1023.9 hPa NNW 3.7 km/h 3.7 km/h 67 % 0.0 mm
08:19 8.4 °C 2.6 °C 1024.9 hPa NNW 5.6 km/h 5.6 km/h 67 % 0.0 mm
08:24 8.6 °C 2.8 °C 1024.9 hPa NE 3.2 km/h 3.2 km/h 67 % 0.0 mm
08:29 8.9 °C 2.9 °C 1024.9 hPa NNW 3.7 km/h 3.7 km/h 66 % 0.0 mm
08:34 9.0 °C 3.0 °C 1024.9 hPa ENE 3.7 km/h   66 % 0.0 mm
08:39 9.1 °C 3.1 °C 1024.9 hPa West 1.9 km/h 1.9 km/h 66 % 0.0 mm
08:45 9.6 °C 3.6 °C 1024.9 hPa ENE 3.7 km/h 3.7 km/h 66 % 0.0 mm
08:50 9.6 °C 3.3 °C 1024.9 hPa Calm     65 % 0.0 mm
08:55 9.3 °C 3.1 °C 1024.9 hPa NNE 3.7 km/h 3.7 km/h 65 % 0.0 mm
09:00 9.1 °C 2.9 °C 1024.9 hPa ENE 4.2 km/h 4.2 km/h 65 % 0.0 mm
09:05 9.1 °C 2.9 °C 1024.9 hPa ENE 5.6 km/h 5.6 km/h 65 % 0.0 mm
09:10 9.0 °C 2.8 °C 1024.9 hPa NW 3.7 km/h   65 % 0.0 mm
09:15 9.1 °C 2.9 °C 1024.9 hPa ENE 3.7 km/h 3.7 km/h 65 % 0.0 mm
09:20 9.0 °C 2.8 °C 1024.9 hPa ENE 5.6 km/h 5.6 km/h 65 % 0.0 mm
09:25 9.0 °C 2.8 °C 1024.9 hPa NE 1.6 km/h 4.8 km/h 65 % 0.0 mm
09:30 9.0 °C 2.8 °C 1024.9 hPa Calm   3.2 km/h 65 % 0.0 mm
09:35 9.0 °C 3.0 °C 1024.9 hPa Calm   3.2 km/h 66 % 0.0 mm
09:45 9.0 °C 3.0 °C 1024.9 hPa WNW 3.2 km/h 3.2 km/h 66 % 0.0 mm
09:50 9.1 °C 2.9 °C 1024.3 hPa NW 1.6 km/h 4.8 km/h 65 % 0.0 mm
09:55 9.2 °C 2.9 °C 1023.9 hPa NW 1.6 km/h 4.8 km/h 65 % 0.0 mm
10:00 9.3 °C 3.1 °C 1023.9 hPa North 1.6 km/h 3.2 km/h 65 % 0.0 mm
10:05 9.4 °C 3.2 °C 1023.9 hPa NNW 3.7 km/h 3.7 km/h 65 % 0.0 mm
10:10 9.4 °C 3.4 °C 1023.9 hPa WNW 3.7 km/h 3.7 km/h 66 % 0.0 mm
10:15 9.5 °C 3.2 °C 1023.9 hPa Calm   3.2 km/h 65 % 0.0 mm
10:20 9.5 °C 3.2 °C 1023.9 hPa WNW 1.6 km/h 4.8 km/h 65 % 0.0 mm
10:25 9.5 °C 3.2 °C 1023.9 hPa WSW 3.7 km/h 3.7 km/h 65 % 0.0 mm
10:30 9.5 °C 3.2 °C 1023.9 hPa Calm   1.6 km/h 65 % 0.0 mm
10:35 9.6 °C 3.3 °C 1023.9 hPa NE 1.9 km/h   65 % 0.0 mm
10:40 9.6 °C 3.3 °C 1023.9 hPa NE 1.9 km/h   65 % 0.0 mm
10:45 9.7 °C 3.4 °C 1023.9 hPa WNW 3.7 km/h 3.7 km/h 65 % 0.0 mm
10:50 9.7 °C 3.4 °C 1023.9 hPa Calm   3.2 km/h 65 % 0.0 mm
10:55 9.8 °C 3.5 °C 1023.9 hPa Calm   4.8 km/h 65 % 0.0 mm
11:00 9.8 °C 3.5 °C 1023.9 hPa ENE 3.7 km/h 3.7 km/h 65 % 0.0 mm
11:05 9.8 °C 3.3 °C 1024.9 hPa WNW 3.7 km/h   64 % 0.0 mm
11:10 9.8 °C 3.3 °C 1024.9 hPa ESE 3.9 km/h   64 % 0.0 mm
11:15 9.9 °C 3.4 °C 1024.9 hPa NW 1.6 km/h 4.8 km/h 64 % 0.0 mm
11:20 9.9 °C 3.4 °C 1024.3 hPa Calm   4.8 km/h 64 % 0.0 mm
11:25 10.0 °C 3.5 °C 1023.9 hPa NW 1.6 km/h 4.8 km/h 64 % 0.0 mm
11:30 10.0 °C 3.5 °C 1023.9 hPa ENE 5.6 km/h 5.6 km/h 64 % 0.0 mm
11:35 10.1 °C 3.6 °C 1023.9 hPa NNE 3.2 km/h 9.7 km/h 64 % 0.0 mm
11:40 10.2 °C 3.4 °C 1023.9 hPa NNE 1.9 km/h   63 % 0.0 mm
11:45 10.2 °C 3.5 °C 1023.9 hPa Calm   1.6 km/h 63 % 0.0 mm
11:50 10.3 °C 3.6 °C 1023.9 hPa WNW 1.9 km/h 1.9 km/h 63 % 0.0 mm
11:55 10.4 °C 3.7 °C 1023.9 hPa ENE 3.7 km/h   63 % 0.0 mm
12:00 10.5 °C 3.9 °C 1023.9 hPa SW 2.3 km/h   64 % 0.0 mm
12:05 10.5 °C 3.9 °C 1023.9 hPa ENE 5.6 km/h 5.6 km/h 64 % 0.0 mm
12:10 10.5 °C 3.7 °C 1023.9 hPa NE 1.6 km/h 4.8 km/h 63 % 0.0 mm
12:15 10.6 °C 3.8 °C 1023.9 hPa NE 3.2 km/h 4.8 km/h 63 % 0.0 mm
12:20 10.6 °C 3.8 °C 1023.9 hPa NNW 1.9 km/h   63 % 0.0 mm
12:25 10.7 °C 3.9 °C 1023.9 hPa WSW 3.9 km/h 3.9 km/h 63 % 0.0 mm
12:30 10.8 °C 4.1 °C 1023.9 hPa NNW 1.9 km/h   63 % 0.0 mm
12:35 10.8 °C 4.1 °C 1023.9 hPa NNW 5.6 km/h 5.6 km/h 63 % 0.0 mm
12:40 10.8 °C 4.1 °C 1023.9 hPa NNW 1.6 km/h 3.2 km/h 63 % 0.0 mm
12:45 10.9 °C 4.3 °C 1023.9 hPa West 1.6 km/h 3.2 km/h 64 % 0.0 mm
12:50 11.0 °C 4.4 °C 1023.9 hPa WSW 1.6 km/h 3.2 km/h 64 % 0.0 mm
12:55 11.0 °C 4.4 °C 1023.9 hPa Calm     64 % 0.0 mm
13:00 11.1 °C 4.3 °C 1023.9 hPa NE 3.7 km/h   63 % 0.0 mm
13:05 11.2 °C 4.6 °C 1023.9 hPa Calm   1.6 km/h 64 % 0.0 mm
13:10 11.2 °C 4.6 °C 1023.9 hPa WNW 1.6 km/h 3.2 km/h 64 % 0.0 mm
13:15 11.3 °C 4.9 °C 1023.9 hPa Calm     65 % 0.0 mm
13:20 11.3 °C 4.9 °C 1023.9 hPa SW 2.3 km/h   65 % 0.0 mm
13:25 11.4 °C 4.8 °C 1023.9 hPa SW 1.9 km/h   64 % 0.0 mm
13:30 11.4 °C 5.1 °C 1023.9 hPa SW 1.6 km/h 3.2 km/h 65 % 0.0 mm
13:35 11.6 °C 5.0 °C 1023.9 hPa Calm   4.8 km/h 64 % 0.0 mm
13:40 11.7 °C 5.1 °C 1023.9 hPa Calm   3.2 km/h 64 % 0.0 mm
13:45 11.7 °C 5.1 °C 1023.9 hPa West 3.7 km/h 3.7 km/h 64 % 0.0 mm
13:50 11.8 °C 5.2 °C 1022.9 hPa NW 1.9 km/h   64 % 0.0 mm
13:55 11.9 °C 5.3 °C 1022.9 hPa Calm   1.6 km/h 64 % 0.0 mm
14:00 12.1 °C 5.7 °C 1022.9 hPa SW 3.7 km/h 3.7 km/h 65 % 0.0 mm
14:05 12.1 °C 5.7 °C 1022.9 hPa SW 1.6 km/h 3.2 km/h 65 % 0.0 mm
14:10 12.1 °C 5.5 °C 1022.9 hPa WSW 3.7 km/h 3.7 km/h 64 % 0.0 mm
14:15 12.2 °C 5.6 °C 1022.9 hPa NW 3.7 km/h 3.7 km/h 64 % 0.0 mm
14:20 12.2 °C 5.6 °C 1022.9 hPa NW 3.2 km/h 6.4 km/h 64 % 0.0 mm
14:25 12.2 °C 5.6 °C 1022.9 hPa NW 3.7 km/h 3.7 km/h 64 % 0.0 mm
14:30 12.3 °C 5.7 °C 1022.9 hPa NNE 1.9 km/h   64 % 0.0 mm
14:35 12.3 °C 5.7 °C 1022.9 hPa WSW 3.2 km/h 3.2 km/h 64 % 0.0 mm
14:40 12.4 °C 5.8 °C 1022.9 hPa West 3.7 km/h   64 % 0.0 mm
14:45 12.5 °C 5.9 °C 1022.9 hPa NW 1.9 km/h   64 % 0.0 mm
14:50 12.6 °C 5.9 °C 1022.9 hPa NW 3.7 km/h 3.7 km/h 64 % 0.0 mm
14:55 12.6 °C 5.9 °C 1022.9 hPa NE 3.7 km/h 3.7 km/h 64 % 0.0 mm
15:00 12.6 °C 5.9 °C 1022.9 hPa WSW 11.1 km/h 11.1 km/h 64 % 0.0 mm
15:05 13.1 °C 6.4 °C 1022.9 hPa NW 4.2 km/h 4.2 km/h 64 % 0.0 mm
15:08 13.3 °C 6.6 °C 1022.9 hPa WNW 3.7 km/h 3.7 km/h 64 % 0.0 mm
15:13 13.4 °C 6.7 °C 1022.9 hPa NW 7.4 km/h 7.4 km/h 64 % 0.0 mm
15:18 13.8 °C 6.9 °C 1022.9 hPa NW 5.6 km/h 5.6 km/h 63 % 0.0 mm
15:23 13.9 °C 7.2 °C 1022.9 hPa WNW 3.7 km/h 3.7 km/h 64 % 0.0 mm
15:28 14.2 °C 7.3 °C 1022.9 hPa WSW 3.7 km/h 3.7 km/h 63 % 0.0 mm
15:33 14.6 °C 7.6 °C 1022.9 hPa NW 3.7 km/h 3.7 km/h 63 % 0.0 mm
15:38 15.1 °C 8.1 °C 1022.9 hPa WSW 9.3 km/h 9.3 km/h 63 % 0.0 mm
15:43 15.6 °C 8.3 °C 1022.9 hPa WNW 3.7 km/h 3.9 km/h 62 % 0.0 mm
15:48 15.7 °C 8.4 °C 1022.9 hPa WSW 6.4 km/h 6.4 km/h 62 % 0.0 mm
15:53 15.9 °C 8.6 °C 1022.9 hPa West 11.1 km/h 11.1 km/h 62 % 0.0 mm
15:58 16.3 °C 8.8 °C 1022.9 hPa WSW 5.6 km/h 5.6 km/h 61 % 0.0 mm
16:03 16.4 °C 8.6 °C 1022.9 hPa WSW 6.4 km/h 6.4 km/h 60 % 0.0 mm
16:08 16.5 °C 8.7 °C 1021.9 hPa NNW 7.4 km/h 7.4 km/h 60 % 0.0 mm
16:13 16.6 °C 8.6 °C 1021.9 hPa West 7.4 km/h 7.4 km/h 59 % 0.0 mm
16:18 16.6 °C 8.6 °C 1021.9 hPa SW 9.3 km/h 9.3 km/h 59 % 0.0 mm
16:23 16.6 °C 8.6 °C 1021.9 hPa West 7.4 km/h 7.4 km/h 59 % 0.0 mm
16:28 16.6 °C 8.3 °C 1021.9 hPa West 7.4 km/h 7.4 km/h 58 % 0.0 mm
16:33 16.6 °C 8.1 °C 1021.9 hPa West 7.4 km/h 7.4 km/h 57 % 0.0 mm
16:38 16.7 °C 8.1 °C 1021.9 hPa WSW 12.6 km/h 12.6 km/h 57 % 0.0 mm
16:43 16.6 °C 8.1 °C 1021.9 hPa West 7.4 km/h 7.4 km/h 57 % 0.0 mm
16:48 16.5 °C 7.9 °C 1021.9 hPa West 9.3 km/h 9.3 km/h 57 % 0.0 mm
16:53 16.5 °C 7.9 °C 1021.9 hPa WSW 3.7 km/h 3.7 km/h 57 % 0.0 mm
16:58 16.5 °C 7.9 °C 1021.9 hPa SW 1.9 km/h   57 % 0.0 mm
17:03 16.4 °C 7.8 °C 1021.9 hPa Calm     57 % 0.0 mm
17:08 16.3 °C 7.8 °C 1020.9 hPa SW 1.9 km/h   57 % 0.0 mm
17:13 16.0 °C 7.5 °C 1020.9 hPa WNW 3.2 km/h 3.2 km/h 57 % 0.0 mm
17:18 15.9 °C 7.4 °C 1020.9 hPa WNW 1.9 km/h   57 % 0.0 mm
17:23 15.6 °C 7.3 °C 1021.9 hPa Calm     58 % 0.0 mm
17:25 15.6 °C 7.3 °C 1021.9 hPa WNW 1.9 km/h   58 % 0.0 mm
17:30 15.3 °C 7.1 °C 1021.9 hPa WNW 1.9 km/h   58 % 0.0 mm
17:35 15.3 °C 7.1 °C 1021.9 hPa NW 3.7 km/h 3.7 km/h 58 % 0.0 mm
17:40 15.1 °C 6.9 °C 1021.9 hPa WNW 1.9 km/h 1.9 km/h 58 % 0.0 mm
17:45 15.0 °C 7.1 °C 1021.9 hPa West 3.7 km/h 3.7 km/h 59 % 0.0 mm
17:50 14.8 °C 6.8 °C 1021.9 hPa WSW 3.5 km/h 3.5 km/h 59 % 0.0 mm
17:55 14.7 °C 6.8 °C 1021.9 hPa SW 3.7 km/h 3.7 km/h 59 % 0.0 mm
18:00 14.4 °C 6.5 °C 1021.9 hPa WSW 3.7 km/h 3.7 km/h 59 % 0.0 mm
18:05 14.3 °C 6.4 °C 1021.9 hPa WSW 1.9 km/h   59 % 0.0 mm
18:10 14.2 °C 6.3 °C 1021.9 hPa Calm     59 % 0.0 mm
18:15 14.0 °C 6.1 °C 1021.9 hPa NNW 1.9 km/h   59 % 0.0 mm
18:20 14.0 °C 6.1 °C 1020.9 hPa NE 3.7 km/h 3.7 km/h 59 % 0.0 mm
18:25 14.1 °C 6.4 °C 1020.9 hPa NE 3.7 km/h 3.7 km/h 60 % 0.0 mm
18:30 14.0 °C 6.3 °C 1020.9 hPa ENE 3.7 km/h 3.7 km/h 60 % 0.0 mm
18:35 13.9 °C 6.3 °C 1021.9 hPa NE 3.7 km/h 3.7 km/h 60 % 0.0 mm
18:40 13.6 °C 6.0 °C 1021.9 hPa NNE 1.9 km/h 1.9 km/h 60 % 0.0 mm
18:45 13.5 °C 5.9 °C 1021.9 hPa Calm     60 % 0.0 mm
18:50 13.4 °C 5.8 °C 1021.9 hPa NNW 3.7 km/h 3.7 km/h 60 % 0.0 mm
18:55 13.3 °C 5.7 °C 1021.9 hPa North 3.7 km/h 3.7 km/h 60 % 0.0 mm
19:00 13.3 °C 5.7 °C 1021.9 hPa North 3.7 km/h 3.7 km/h 60 % 0.0 mm
19:05 13.1 °C 5.7 °C 1020.9 hPa NNE 4.7 km/h 4.7 km/h 61 % 0.0 mm
19:10 12.9 °C 5.6 °C 1020.9 hPa WSW 5.6 km/h 5.6 km/h 61 % 0.0 mm
19:15 12.8 °C 5.4 °C 1020.9 hPa NE 3.7 km/h 3.7 km/h 61 % 0.0 mm
19:20 12.7 °C 5.4 °C 1020.9 hPa WNW 1.9 km/h   61 % 0.0 mm
19:25 12.7 °C 5.6 °C 1020.9 hPa NNW 1.9 km/h 1.9 km/h 62 % 0.0 mm
19:30 12.7 °C 5.6 °C 1020.9 hPa NNW 1.9 km/h   62 % 0.0 mm
19:35 12.5 °C 5.4 °C 1020.9 hPa NE 1.9 km/h 1.9 km/h 62 % 0.0 mm
19:40 12.1 °C 5.1 °C 1020.9 hPa West 3.9 km/h 3.9 km/h 62 % 0.0 mm
19:45 12.0 °C 4.9 °C 1020.9 hPa WSW 5.6 km/h 5.6 km/h 62 % 0.0 mm
19:50 12.0 °C 4.9 °C 1021.9 hPa NW 3.7 km/h 3.7 km/h 62 % 0.0 mm
19:55 12.3 °C 5.4 °C 1021.9 hPa NW 3.7 km/h 3.7 km/h 63 % 0.0 mm
20:00 12.6 °C 5.7 °C 1021.9 hPa WNW 5.6 km/h 5.6 km/h 63 % 0.0 mm
20:05 12.9 °C 6.0 °C 1021.9 hPa SW 3.7 km/h 3.7 km/h 63 % 0.0 mm
20:10 13.0 °C 6.1 °C 1021.9 hPa WNW 2.3 km/h   63 % 0.0 mm
20:15 13.0 °C 6.3 °C 1021.9 hPa Calm     64 % 0.0 mm
20:16 13.0 °C 6.3 °C 1021.9 hPa Calm     64 % 0.0 mm
20:21 13.1 °C 6.4 °C 1021.9 hPa Calm     64 % 0.0 mm
20:26 13.2 °C 6.6 °C 1021.9 hPa Calm     64 % 0.0 mm
20:31 13.2 °C 6.6 °C 1021.9 hPa WNW 3.7 km/h   64 % 0.0 mm
20:36 13.3 °C 6.6 °C 1021.9 hPa NNE 3.7 km/h 3.7 km/h 64 % 0.0 mm
20:41 13.3 °C 6.4 °C 1021.9 hPa NNW 7.4 km/h 7.4 km/h 63 % 0.0 mm
20:46 13.4 °C 6.5 °C 1021.9 hPa NNW 1.9 km/h 1.9 km/h 63 % 0.0 mm
20:51 13.5 °C 6.6 °C 1021.9 hPa WNW 3.7 km/h 3.7 km/h 63 % 0.0 mm
20:56 13.6 °C 6.7 °C 1021.9 hPa SW 5.6 km/h 5.6 km/h 63 % 0.0 mm
21:01 13.6 °C 6.7 °C 1021.9 hPa WNW 3.7 km/h 3.7 km/h 63 % 0.0 mm
21:06 13.7 °C 6.8 °C 1021.9 hPa West 2.6 km/h 2.6 km/h 63 % 0.0 mm
21:11 13.6 °C 6.7 °C 1021.9 hPa North 3.7 km/h   63 % 0.0 mm
21:16 13.5 °C 6.6 °C 1021.9 hPa West 2.6 km/h 2.6 km/h 63 % 0.0 mm
21:21 13.4 °C 6.5 °C 1021.9 hPa Calm     63 % 0.0 mm
21:26 13.2 °C 6.3 °C 1021.9 hPa WNW 3.7 km/h   63 % 0.0 mm
21:31 13.2 °C 6.3 °C 1021.9 hPa WNW 5.6 km/h 5.6 km/h 63 % 0.0 mm
21:36 13.1 °C 6.2 °C 1021.9 hPa West 3.7 km/h 3.7 km/h 63 % 0.0 mm
21:38 13.2 °C 6.3 °C 1021.9 hPa SW 3.7 km/h 3.7 km/h 63 % 0.0 mm
21:43 13.2 °C 6.3 °C 1021.9 hPa North 3.7 km/h 3.7 km/h 63 % 0.0 mm
21:48 13.1 °C 6.2 °C 1021.9 hPa West 3.7 km/h 3.7 km/h 63 % 0.0 mm
21:53 13.0 °C 6.1 °C 1021.9 hPa West 3.2 km/h 3.2 km/h 63 % 0.0 mm
21:58 13.0 °C 6.1 °C 1021.9 hPa WNW 3.7 km/h   63 % 0.0 mm
22:03 12.9 °C 6.0 °C 1021.9 hPa ENE 1.9 km/h   63 % 0.0 mm
22:08 12.7 °C 6.1 °C 1021.9 hPa NE 1.9 km/h 1.9 km/h 64 % 0.0 mm
22:13 12.6 °C 5.9 °C 1021.9 hPa NNE 4.2 km/h 4.2 km/h 64 % 0.0 mm
22:18 12.4 °C 5.8 °C 1021.9 hPa ENE 2.6 km/h 2.6 km/h 64 % 0.0 mm
22:23 12.4 °C 5.8 °C 1021.9 hPa NNE 3.9 km/h 3.9 km/h 64 % 0.0 mm
22:29 12.2 °C 5.6 °C 1021.9 hPa NNE 3.7 km/h 3.7 km/h 64 % 0.0 mm
22:34 12.2 °C 5.6 °C 1021.9 hPa NW 1.9 km/h 1.9 km/h 64 % 0.0 mm
22:39 12.3 °C 5.7 °C 1021.9 hPa NE 3.7 km/h 3.7 km/h 64 % 0.0 mm
22:44 12.0 °C 5.4 °C 1021.9 hPa NNE 1.9 km/h 1.9 km/h 64 % 0.0 mm
22:49 11.7 °C 5.3 °C 1021.9 hPa NNE 3.7 km/h 3.7 km/h 65 % 0.0 mm
22:54 11.7 °C 5.3 °C 1021.9 hPa NNE 1.9 km/h   65 % 0.0 mm
22:59 11.7 °C 5.3 °C 1021.9 hPa ENE 1.9 km/h 2.3 km/h 65 % 0.0 mm
23:04 11.6 °C 5.2 °C 1021.9 hPa North 3.7 km/h 3.7 km/h 65 % 0.0 mm
23:09 11.6 °C 5.2 °C 1021.9 hPa North 5.0 km/h 5.0 km/h 65 % 0.0 mm
23:14 11.6 °C 5.2 °C 1021.9 hPa North 3.7 km/h 3.7 km/h 65 % 0.0 mm
23:19 11.6 °C 5.2 °C 1021.9 hPa NNE 5.6 km/h 5.6 km/h 65 % 0.0 mm
23:24 11.6 °C 5.2 °C 1021.9 hPa West 3.7 km/h 3.7 km/h 65 % 0.0 mm
23:29 11.6 °C 5.2 °C 1021.9 hPa North 5.6 km/h 5.6 km/h 65 % 0.0 mm
23:34 11.6 °C 5.2 °C 1021.9 hPa North 5.6 km/h 5.6 km/h 65 % 0.0 mm
23:39 11.6 °C 5.2 °C 1021.9 hPa North 5.6 km/h 5.6 km/h 65 % 0.0 mm
23:44 11.5 °C 5.2 °C 1021.9 hPa WNW 3.7 km/h   65 % 0.0 mm
23:49 11.5 °C 5.4 °C 1021.9 hPa NNW 1.9 km/h 1.9 km/h 66 % 0.0 mm
23:54 11.4 °C 5.3 °C 1021.9 hPa NE 1.9 km/h 1.9 km/h 66 % 0.0 mm
23:59 11.3 °C 5.2 °C 1021.9 hPa NNW 1.9 km/h   66 % 0.0 mm
Meteo Sesrovires
Elogis d' Weather Underground - 4 mb

Guio original per  Jim McMurry - jmcmurry@mwt.net Adaptat per a la plantilla per  Wim van der Kuil - Leuven-Template.eu

Trobareu la nostra informacio del temps tambe a:

Weather Underground

AWEKAS